createdAt,value
2023-05-10T00:00:40.333Z,9.711697
2023-05-10T00:01:40.351Z,9.711603
2023-05-10T00:02:40.542Z,9.711584
2023-05-10T00:03:40.386Z,9.711712
2023-05-10T00:04:40.300Z,9.711653
2023-05-10T00:05:40.309Z,9.711721
2023-05-10T00:06:40.284Z,9.711694
2023-05-10T00:07:40.342Z,9.711530
2023-05-10T00:08:40.288Z,9.711348
2023-05-10T00:09:40.281Z,9.711699
2023-05-10T00:10:40.254Z,9.711640
2023-05-10T00:11:40.250Z,9.711679
2023-05-10T00:12:40.242Z,9.711466
2023-05-10T00:13:40.247Z,9.710967
2023-05-10T00:14:40.227Z,9.711043
2023-05-10T00:15:40.268Z,9.710853
2023-05-10T00:16:40.261Z,9.711173
2023-05-10T00:17:40.230Z,9.711024
2023-05-10T00:18:40.197Z,9.710741
2023-05-10T00:19:40.190Z,9.711201
2023-05-10T00:24:06.820Z,9.711704
2023-05-10T00:25:06.818Z,9.711685
2023-05-10T00:26:06.803Z,9.711680
2023-05-10T00:27:06.806Z,9.711701
2023-05-10T00:28:06.787Z,9.711698
2023-05-10T00:29:06.783Z,9.711656
2023-05-10T00:30:06.805Z,9.711681
2023-05-10T00:31:06.768Z,9.711658
2023-05-10T00:32:06.796Z,9.711707
2023-05-10T00:33:06.769Z,9.711721
2023-05-10T00:34:06.762Z,9.711761
2023-05-10T00:35:06.745Z,9.711759
2023-05-10T00:36:06.736Z,9.711700
2023-05-10T00:37:06.725Z,9.711744
2023-05-10T00:38:06.725Z,9.711637
2023-05-10T00:39:06.704Z,9.711716
2023-05-10T00:40:06.688Z,9.711649
2023-05-10T00:41:07.218Z,9.711665
2023-05-10T00:42:06.682Z,9.711687
2023-05-10T00:43:06.661Z,9.711679
2023-05-10T00:44:06.655Z,9.711656
2023-05-10T00:45:06.647Z,9.711659
2023-05-10T00:46:06.726Z,9.711687
2023-05-10T00:47:06.627Z,9.711704
2023-05-10T00:48:06.706Z,9.711699
2023-05-10T00:49:06.615Z,9.711734
2023-05-10T00:50:06.617Z,9.711671
2023-05-10T00:51:06.610Z,9.711706
2023-05-10T00:52:06.592Z,9.711743
2023-05-10T00:53:06.589Z,9.711720
2023-05-10T00:54:06.578Z,9.711770
2023-05-10T00:55:06.572Z,9.711727
2023-05-10T00:56:06.575Z,9.711727
2023-05-10T00:57:06.552Z,9.711784
2023-05-10T00:58:06.541Z,9.711756
2023-05-10T00:59:06.535Z,9.711616
2023-05-10T01:00:07.527Z,9.711721
2023-05-10T01:01:06.548Z,9.711689
2023-05-10T01:02:06.523Z,9.711724
2023-05-10T01:03:06.636Z,9.711715
2023-05-10T01:04:06.519Z,9.711748
2023-05-10T01:05:06.569Z,9.711675
2023-05-10T01:06:06.494Z,9.711768
2023-05-10T01:07:06.480Z,9.711761
2023-05-10T01:08:06.464Z,9.711725
2023-05-10T01:09:06.457Z,9.711709
2023-05-10T01:10:06.455Z,9.711730
2023-05-10T01:11:06.453Z,9.711729
2023-05-10T01:12:06.530Z,9.711724
2023-05-10T01:13:06.476Z,9.711780
2023-05-10T01:14:06.451Z,9.711770
2023-05-10T01:15:06.412Z,9.711750
2023-05-10T01:16:06.468Z,9.711767
2023-05-10T01:17:06.403Z,9.711779
2023-05-10T01:18:06.417Z,9.711749
2023-05-10T01:19:06.370Z,9.711720
2023-05-10T01:20:06.379Z,9.711740
2023-05-10T01:21:06.360Z,9.711755
2023-05-10T01:22:06.353Z,9.711756
2023-05-10T01:23:06.350Z,9.711792
2023-05-10T01:24:06.335Z,9.711798
2023-05-10T01:25:06.326Z,9.711753
2023-05-10T01:26:06.322Z,9.711775
2023-05-10T01:27:06.306Z,9.711741
2023-05-10T01:28:06.329Z,9.711698
2023-05-10T01:29:06.291Z,9.711677
2023-05-10T01:30:15.612Z,9.711664
2023-05-10T01:31:08.302Z,9.711639
2023-05-10T01:32:07.128Z,9.711657
2023-05-10T01:33:06.328Z,9.711649
2023-05-10T01:34:06.260Z,9.711660
2023-05-10T01:35:06.237Z,9.711644
2023-05-10T01:36:06.237Z,9.711636
2023-05-10T01:37:06.237Z,9.711649
2023-05-10T01:38:06.231Z,9.711647
2023-05-10T01:39:06.210Z,9.711648
2023-05-10T01:40:06.210Z,9.711638
2023-05-10T01:41:06.182Z,9.711636
2023-05-10T01:42:07.195Z,9.711626
2023-05-10T01:43:06.184Z,9.711637
2023-05-10T01:44:06.183Z,9.711629
2023-05-10T01:45:06.170Z,9.711617
2023-05-10T01:46:06.154Z,9.711633
2023-05-10T01:47:06.149Z,9.711661
2023-05-10T01:48:06.173Z,9.711597
2023-05-10T01:49:06.149Z,9.711617
2023-05-10T01:50:06.121Z,9.711647
2023-05-10T01:51:06.108Z,9.711601
2023-05-10T01:52:06.106Z,9.711584
2023-05-10T01:53:06.098Z,9.711625
2023-05-10T01:54:06.093Z,9.711679
2023-05-10T01:55:06.078Z,9.711657
2023-05-10T01:56:06.069Z,9.711679
2023-05-10T01:57:06.065Z,9.711668
2023-05-10T01:58:06.063Z,9.711679
2023-05-10T01:59:06.079Z,9.711641
2023-05-10T02:00:06.633Z,9.711675
2023-05-10T02:01:06.123Z,9.711691
2023-05-10T02:02:06.020Z,9.711693
2023-05-10T02:03:06.150Z,9.711688
2023-05-10T02:04:06.041Z,9.711702
2023-05-10T02:05:06.002Z,9.711665
2023-05-10T02:06:05.991Z,9.711660
2023-05-10T02:07:05.984Z,9.711681
2023-05-10T02:08:05.982Z,9.711738
2023-05-10T02:09:06.006Z,9.711694
2023-05-10T02:10:05.978Z,9.711677
2023-05-10T02:11:05.957Z,9.711732
2023-05-10T02:12:05.943Z,9.711727
2023-05-10T02:13:05.966Z,9.711699
2023-05-10T02:14:05.928Z,9.711657
2023-05-10T02:15:05.919Z,9.711659
2023-05-10T02:16:05.977Z,9.711691
2023-05-10T02:17:05.900Z,9.711627
2023-05-10T02:18:05.942Z,9.711804
2023-05-10T02:19:05.885Z,9.711713
2023-05-10T02:20:06.710Z,9.711626
2023-05-10T02:21:05.867Z,9.711779
2023-05-10T02:22:05.863Z,9.711637
2023-05-10T02:23:05.870Z,9.711571
2023-05-10T02:24:05.842Z,9.711774
2023-05-10T02:25:06.100Z,9.711618
2023-05-10T02:26:05.832Z,9.711710
2023-05-10T02:27:05.832Z,9.711592
2023-05-10T02:28:05.814Z,9.711634
2023-05-10T02:29:05.829Z,9.711743
2023-05-10T02:30:05.817Z,9.711946
2023-05-10T02:31:05.810Z,9.711746
2023-05-10T02:32:05.803Z,9.711842
2023-05-10T02:33:05.782Z,9.711859
2023-05-10T02:34:05.754Z,9.711795
2023-05-10T02:35:06.779Z,9.711764
2023-05-10T02:36:05.773Z,9.711796
2023-05-10T02:37:05.736Z,9.711440
2023-05-10T02:38:05.747Z,9.711528
2023-05-10T02:39:05.742Z,9.711945
2023-05-10T02:40:05.756Z,9.711556
2023-05-10T02:41:05.718Z,9.711577
2023-05-10T02:42:05.732Z,9.711703
2023-05-10T02:43:05.695Z,9.711778
2023-05-10T02:44:05.680Z,9.711797
2023-05-10T02:45:05.679Z,9.711789
2023-05-10T02:46:05.781Z,9.711642
2023-05-10T02:47:05.645Z,9.711642
2023-05-10T02:48:06.662Z,9.711735
2023-05-10T02:49:05.652Z,9.711626
2023-05-10T02:50:05.658Z,9.711589
2023-05-10T02:51:05.639Z,9.711637
2023-05-10T02:52:06.224Z,9.711548
2023-05-10T02:53:05.625Z,9.711658
2023-05-10T02:54:05.614Z,9.711622
2023-05-10T02:55:05.584Z,9.711690
2023-05-10T02:56:05.616Z,9.711602
2023-05-10T02:57:05.621Z,9.711626
2023-05-10T02:58:05.578Z,9.711640
2023-05-10T02:59:05.553Z,9.711632
2023-05-10T03:00:05.558Z,9.711633
2023-05-10T03:01:06.182Z,9.711637
2023-05-10T03:02:05.525Z,9.711647
2023-05-10T03:03:05.584Z,9.711634
2023-05-10T03:04:05.604Z,9.711663
2023-05-10T03:05:05.512Z,9.711643
2023-05-10T03:06:05.505Z,9.711647
2023-05-10T03:07:05.489Z,9.711650
2023-05-10T03:08:05.482Z,9.711679
2023-05-10T03:09:05.478Z,9.711619
2023-05-10T03:10:05.515Z,9.711537
2023-05-10T03:11:05.495Z,9.711603
2023-05-10T03:12:05.510Z,9.711572
2023-05-10T03:13:05.476Z,9.711586
2023-05-10T03:14:05.447Z,9.711538
2023-05-10T03:15:05.452Z,9.711592
2023-05-10T03:16:05.576Z,9.711575
2023-05-10T03:17:05.425Z,9.711585
2023-05-10T03:18:05.428Z,9.711566
2023-05-10T03:19:05.389Z,9.711519
2023-05-10T03:20:05.386Z,9.711548
2023-05-10T03:21:05.398Z,9.711535
2023-05-10T03:22:05.388Z,9.711609
2023-05-10T03:23:05.366Z,9.711590
2023-05-10T03:24:05.365Z,9.711553
2023-05-10T03:25:05.371Z,9.711618
2023-05-10T03:26:05.358Z,9.711585
2023-05-10T03:27:05.373Z,9.711555
2023-05-10T03:28:05.341Z,9.711547
2023-05-10T03:29:05.332Z,9.711572
2023-05-10T03:30:05.312Z,9.711559
2023-05-10T03:31:05.336Z,9.711550
2023-05-10T03:32:05.292Z,9.711508
2023-05-10T03:33:05.318Z,9.711489
2023-05-10T03:34:05.284Z,9.711534
2023-05-10T03:35:05.269Z,9.711655
2023-05-10T03:36:05.275Z,9.711629
2023-05-10T03:37:06.177Z,9.711654
2023-05-10T03:38:05.255Z,9.711684
2023-05-10T03:39:05.229Z,9.711628
2023-05-10T03:40:06.245Z,9.711630
2023-05-10T03:41:05.767Z,9.711637
2023-05-10T03:42:05.225Z,9.711675
2023-05-10T03:43:05.225Z,9.711657
2023-05-10T03:44:05.210Z,9.711656
2023-05-10T03:45:05.203Z,9.711652
2023-05-10T03:46:05.212Z,9.711654
2023-05-10T03:47:05.205Z,9.711713
2023-05-10T03:48:05.241Z,9.711743
2023-05-10T03:49:05.182Z,9.711757
2023-05-10T03:50:05.163Z,9.711698
2023-05-10T03:51:05.675Z,9.711691
2023-05-10T03:52:05.142Z,9.711666
2023-05-10T03:53:05.150Z,9.711679
2023-05-10T03:54:05.126Z,9.711720
2023-05-10T03:55:05.148Z,9.712008
2023-05-10T03:56:05.113Z,9.711831
2023-05-10T03:57:05.109Z,9.711708
2023-05-10T03:58:05.112Z,9.711743
2023-05-10T03:59:05.096Z,9.711648
2023-05-10T04:00:05.088Z,9.711698
2023-05-10T04:01:05.076Z,9.711702
2023-05-10T04:02:05.068Z,9.711771
2023-05-10T04:03:05.157Z,9.711803
2023-05-10T04:04:05.051Z,9.711905
2023-05-10T04:05:05.036Z,9.711721
2023-05-10T04:06:05.882Z,9.711795
2023-05-10T04:07:05.027Z,9.711728
2023-05-10T04:08:05.017Z,9.711820
2023-05-10T04:09:05.673Z,9.711665
2023-05-10T04:10:05.000Z,9.711689
2023-05-10T04:11:05.022Z,9.711776
2023-05-10T04:12:05.011Z,9.711839
2023-05-10T04:13:05.090Z,9.711804
2023-05-10T04:14:04.972Z,9.711740
2023-05-10T04:15:05.008Z,9.711718
2023-05-10T04:16:05.216Z,9.711847
2023-05-10T04:17:05.002Z,9.711843
2023-05-10T04:18:06.631Z,9.711839
2023-05-10T04:19:04.927Z,9.711814
2023-05-10T04:20:05.741Z,9.711634
2023-05-10T04:21:04.926Z,9.711624
2023-05-10T04:22:04.923Z,9.711668
2023-05-10T04:23:04.906Z,9.711686
2023-05-10T04:24:04.900Z,9.711639
2023-05-10T04:25:05.050Z,9.711572
2023-05-10T04:26:04.863Z,9.711590
2023-05-10T04:27:04.900Z,9.711616
2023-05-10T04:28:04.859Z,9.711648
2023-05-10T04:29:04.849Z,9.711630
2023-05-10T04:30:04.832Z,9.711650
2023-05-10T04:31:06.754Z,9.711596
2023-05-10T04:32:04.849Z,9.711592
2023-05-10T04:33:05.749Z,9.711624
2023-05-10T04:34:05.760Z,9.711731
2023-05-10T04:35:04.798Z,9.711677
2023-05-10T04:36:04.801Z,9.711615
2023-05-10T04:37:04.823Z,9.711654
2023-05-10T04:38:04.788Z,9.711739
2023-05-10T04:39:04.794Z,9.711731
2023-05-10T04:40:04.753Z,9.711753
2023-05-10T04:41:04.862Z,9.711849
2023-05-10T04:42:04.745Z,9.711884
2023-05-10T04:43:04.735Z,9.711784
2023-05-10T04:44:04.728Z,9.711792
2023-05-10T04:45:04.780Z,9.711742
2023-05-10T04:46:04.750Z,9.711662
2023-05-10T04:47:04.704Z,9.711663
2023-05-10T04:48:04.799Z,9.711709
2023-05-10T04:49:04.701Z,9.711664
2023-05-10T04:50:04.706Z,9.711756
2023-05-10T04:51:05.738Z,9.711648
2023-05-10T04:52:04.667Z,9.711716
2023-05-10T04:53:04.668Z,9.711673
2023-05-10T04:54:06.427Z,9.711528
2023-05-10T04:55:05.653Z,9.711733
2023-05-10T04:56:04.623Z,9.711673
2023-05-10T04:57:04.619Z,9.711617
2023-05-10T04:58:04.623Z,9.711841
2023-05-10T04:59:04.606Z,9.711810
2023-05-10T05:00:04.594Z,9.711855
2023-05-10T05:01:04.593Z,9.711632
2023-05-10T05:02:04.685Z,9.711905
2023-05-10T05:03:04.653Z,9.711798
2023-05-10T05:04:05.263Z,9.711843
2023-05-10T05:05:04.560Z,9.711837
2023-05-10T05:06:04.566Z,9.711749
2023-05-10T05:07:04.547Z,9.711828
2023-05-10T05:08:04.528Z,9.711758
2023-05-10T05:09:04.532Z,9.711727
2023-05-10T05:10:04.537Z,9.711737
2023-05-10T05:11:04.511Z,9.711786
2023-05-10T05:12:04.500Z,9.711779
2023-05-10T05:13:04.528Z,9.711755
2023-05-10T05:14:04.507Z,9.711662
2023-05-10T05:15:04.475Z,9.711682
2023-05-10T05:16:04.524Z,9.711711
2023-05-10T05:17:04.470Z,9.711711
2023-05-10T05:18:04.459Z,9.711666
2023-05-10T05:19:05.465Z,9.711727
2023-05-10T05:20:05.265Z,9.711768
2023-05-10T05:21:04.434Z,9.711814
2023-05-10T05:22:04.444Z,9.711771
2023-05-10T05:23:04.448Z,9.711795
2023-05-10T05:24:04.472Z,9.711786
2023-05-10T05:25:04.441Z,9.711776
2023-05-10T05:26:04.410Z,9.711810
2023-05-10T05:27:05.182Z,9.711791
2023-05-10T05:28:04.393Z,9.711783
2023-05-10T05:29:04.376Z,9.711746
2023-05-10T05:30:04.401Z,9.711691
2023-05-10T05:31:04.377Z,9.711687
2023-05-10T05:32:04.648Z,9.711705
2023-05-10T05:33:04.406Z,9.711673
2023-05-10T05:34:04.342Z,9.711663
2023-05-10T05:35:04.330Z,9.711705
2023-05-10T05:36:04.405Z,9.711709
2023-05-10T05:37:04.332Z,9.711693
2023-05-10T05:38:04.294Z,9.711699
2023-05-10T05:39:05.301Z,9.711704
2023-05-10T05:40:04.286Z,9.711722
2023-05-10T05:41:04.267Z,9.711699
2023-05-10T05:42:04.256Z,9.711630
2023-05-10T05:43:04.262Z,9.711664
2023-05-10T05:44:04.255Z,9.711676
2023-05-10T05:45:04.290Z,9.711659
2023-05-10T05:46:04.239Z,9.711699
2023-05-10T05:47:04.224Z,9.711741
2023-05-10T05:48:04.225Z,9.711721
2023-05-10T05:49:04.199Z,9.711710
2023-05-10T05:50:04.201Z,9.711611
2023-05-10T05:51:07.089Z,9.711547
2023-05-10T05:52:04.181Z,9.711586
2023-05-10T05:53:04.183Z,9.711752
2023-05-10T05:54:04.819Z,9.711816
2023-05-10T05:55:04.179Z,9.711811
2023-05-10T05:56:04.140Z,9.711744
2023-05-10T05:57:04.139Z,9.711635
2023-05-10T05:58:05.119Z,9.711582
2023-05-10T05:59:05.127Z,9.711586
2023-05-10T06:00:04.133Z,9.711632
2023-05-10T06:01:04.109Z,9.711704
2023-05-10T06:02:04.147Z,9.711622
2023-05-10T06:03:04.249Z,9.711523
2023-05-10T06:04:04.199Z,9.711509
2023-05-10T06:05:04.103Z,9.711554
2023-05-10T06:06:04.070Z,9.711586
2023-05-10T06:07:04.064Z,9.711789
2023-05-10T06:08:04.056Z,9.711706
2023-05-10T06:09:04.047Z,9.711526
2023-05-10T06:10:04.053Z,9.711553
2023-05-10T06:11:04.034Z,9.711610
2023-05-10T06:12:04.018Z,9.711942
2023-05-10T06:13:04.096Z,9.711939
2023-05-10T06:14:03.999Z,9.711824
2023-05-10T06:15:07.025Z,9.711803
2023-05-10T06:16:04.018Z,9.711581
2023-05-10T06:17:04.022Z,9.711540
2023-05-10T06:18:04.075Z,9.711491
2023-05-10T06:19:03.975Z,9.711477
2023-05-10T06:20:03.987Z,9.711390
2023-05-10T06:21:03.956Z,9.711465
2023-05-10T06:22:03.954Z,9.711374
2023-05-10T06:23:03.962Z,9.711430
2023-05-10T06:24:04.708Z,9.711480
2023-05-10T06:25:04.168Z,9.711422
2023-05-10T06:26:03.913Z,9.711493
2023-05-10T06:27:03.916Z,9.711557
2023-05-10T06:28:03.912Z,9.711567
2023-05-10T06:29:03.886Z,9.711542
2023-05-10T06:30:15.099Z,9.711579
2023-05-10T06:31:05.885Z,9.711525
2023-05-10T06:32:03.857Z,9.711564
2023-05-10T06:33:03.898Z,9.711484
2023-05-10T06:34:03.855Z,9.711514
2023-05-10T06:35:03.846Z,9.711342
2023-05-10T06:36:03.823Z,9.711485
2023-05-10T06:37:03.819Z,9.711372
2023-05-10T06:38:03.812Z,9.711486
2023-05-10T06:39:03.802Z,9.711416
2023-05-10T06:40:03.848Z,9.711505
2023-05-10T06:41:03.783Z,9.711486
2023-05-10T06:42:03.780Z,9.711549
2023-05-10T06:43:03.780Z,9.711845
2023-05-10T06:44:03.769Z,9.711826
2023-05-10T06:45:03.792Z,9.711876
2023-05-10T06:46:03.776Z,9.711685
2023-05-10T06:47:05.695Z,9.711674
2023-05-10T06:48:03.819Z,9.711827
2023-05-10T06:49:03.740Z,9.711886
2023-05-10T06:50:03.709Z,9.712036
2023-05-10T06:51:04.710Z,9.712051
2023-05-10T06:52:03.722Z,9.712016
2023-05-10T06:53:03.700Z,9.711849
2023-05-10T06:54:03.674Z,9.711958
2023-05-10T06:55:03.801Z,9.712093
2023-05-10T06:56:04.536Z,9.712148
2023-05-10T06:57:10.770Z,9.712089
2023-05-10T06:58:04.654Z,9.712142
2023-05-10T06:59:03.645Z,9.712179
2023-05-10T07:00:03.703Z,9.712350
2023-05-10T07:01:03.704Z,9.712378
2023-05-10T07:02:05.367Z,9.712406
2023-05-10T07:03:03.655Z,9.712286
2023-05-10T07:04:03.596Z,9.712464
2023-05-10T07:05:03.771Z,9.712359
2023-05-10T07:06:03.587Z,9.712329
2023-05-10T07:07:03.583Z,9.712169
2023-05-10T07:08:03.612Z,9.712229
2023-05-10T07:09:03.568Z,9.712348
2023-05-10T07:10:03.557Z,9.712318
2023-05-10T07:11:03.563Z,9.712315
2023-05-10T07:12:03.588Z,9.712147
2023-05-10T07:13:03.613Z,9.712020
2023-05-10T07:14:03.542Z,9.712194
2023-05-10T07:15:03.547Z,9.711893
2023-05-10T07:16:03.578Z,9.711751
2023-05-10T07:17:03.572Z,9.711666
2023-05-10T07:18:03.532Z,9.711637
2023-05-10T07:19:03.476Z,9.711741
2023-05-10T07:20:03.479Z,9.711727
2023-05-10T07:21:03.492Z,9.711715
2023-05-10T07:22:03.471Z,9.711653
2023-05-10T07:23:03.491Z,9.711639
2023-05-10T07:24:03.526Z,9.711652
2023-05-10T07:25:03.425Z,9.711792
2023-05-10T07:26:03.424Z,9.711670
2023-05-10T07:27:03.411Z,9.711638
2023-05-10T07:28:04.412Z,9.711594
2023-05-10T07:29:03.393Z,9.711585
2023-05-10T07:30:03.553Z,9.711613
2023-05-10T07:31:03.446Z,9.711648
2023-05-10T07:32:03.419Z,9.711617
2023-05-10T07:33:03.420Z,9.711653
2023-05-10T07:34:03.359Z,9.711640
2023-05-10T07:35:03.387Z,9.711918
2023-05-10T07:36:03.362Z,9.711730
2023-05-10T07:37:03.360Z,9.711688
2023-05-10T07:38:03.321Z,9.711748
2023-05-10T07:39:03.312Z,9.711815
2023-05-10T07:40:03.290Z,9.711730
2023-05-10T07:41:04.406Z,9.711677
2023-05-10T07:42:03.282Z,9.711668
2023-05-10T07:43:03.318Z,9.711669
2023-05-10T07:44:03.270Z,9.711658
2023-05-10T07:45:03.284Z,9.711674
2023-05-10T07:46:03.271Z,9.711580
2023-05-10T07:47:03.246Z,9.711609
2023-05-10T07:48:03.292Z,9.711609
2023-05-10T07:49:04.318Z,9.711623
2023-05-10T07:50:03.253Z,9.711578
2023-05-10T07:51:03.233Z,9.711661
2023-05-10T07:52:03.210Z,9.711631
2023-05-10T07:53:03.193Z,9.711658
2023-05-10T07:54:03.236Z,9.711623
2023-05-10T07:55:03.184Z,9.711718
2023-05-10T07:56:03.226Z,9.711684
2023-05-10T07:57:03.221Z,9.711641
2023-05-10T07:58:03.185Z,9.711604
2023-05-10T07:59:03.161Z,9.711624
2023-05-10T08:00:03.156Z,9.711667
2023-05-10T08:01:03.159Z,9.711748
2023-05-10T08:02:03.163Z,9.711693
2023-05-10T08:03:03.288Z,9.711714
2023-05-10T08:04:03.472Z,9.711877
2023-05-10T08:05:03.099Z,9.711784
2023-05-10T08:06:03.112Z,9.711820
2023-05-10T08:07:03.098Z,9.711824
2023-05-10T08:08:03.087Z,9.711779
2023-05-10T08:09:03.073Z,9.711892
2023-05-10T08:10:03.080Z,9.711800
2023-05-10T08:11:03.071Z,9.711805
2023-05-10T08:12:03.058Z,9.711715
2023-05-10T08:13:03.078Z,9.711778
2023-05-10T08:14:03.041Z,9.711831
2023-05-10T08:15:03.031Z,9.711961
2023-05-10T08:16:03.156Z,9.712047
2023-05-10T08:17:03.023Z,9.711986
2023-05-10T08:18:03.292Z,9.712302
2023-05-10T08:19:03.230Z,9.712271
2023-05-10T08:20:03.015Z,9.712271
2023-05-10T08:21:02.996Z,9.712051
2023-05-10T08:22:02.999Z,9.711797
2023-05-10T08:23:02.969Z,9.711897
2023-05-10T08:24:02.992Z,9.712107
2023-05-10T08:25:03.188Z,9.712342
2023-05-10T08:26:02.974Z,9.712457
2023-05-10T08:27:02.936Z,9.712427
2023-05-10T08:28:02.918Z,9.712369
2023-05-10T08:29:02.919Z,9.712578
2023-05-10T08:30:02.960Z,9.712559
2023-05-10T08:31:02.945Z,9.712600
2023-05-10T08:32:02.902Z,9.712481
2023-05-10T08:33:02.923Z,9.712150
2023-05-10T08:34:02.873Z,9.712055
2023-05-10T08:35:02.882Z,9.712026
2023-05-10T08:36:02.861Z,9.711930
2023-05-10T08:37:02.846Z,9.711940
2023-05-10T08:38:02.858Z,9.711514
2023-05-10T08:39:02.854Z,9.711316
2023-05-10T08:40:02.831Z,9.711324
2023-05-10T08:41:02.837Z,9.711609
2023-05-10T08:42:02.814Z,9.711637
2023-05-10T08:43:02.806Z,9.711998
2023-05-10T08:44:02.810Z,9.711527
2023-05-10T08:45:02.823Z,9.711978
2023-05-10T08:46:02.787Z,9.711751
2023-05-10T08:47:02.857Z,9.711812
2023-05-10T08:48:02.832Z,9.711800
2023-05-10T08:49:02.757Z,9.711770
2023-05-10T08:50:02.858Z,9.711933
2023-05-10T08:51:02.753Z,9.711720
2023-05-10T08:52:02.739Z,9.711946
2023-05-10T08:53:02.769Z,9.711986
2023-05-10T09:00:50.972Z,9.711440
2023-05-10T09:01:50.894Z,9.711659
2023-05-10T09:02:50.908Z,9.711690
2023-05-10T09:03:50.920Z,9.711734
2023-05-10T09:04:50.958Z,9.711703
2023-05-10T09:05:50.868Z,9.711730
2023-05-10T09:06:50.841Z,9.711750
2023-05-10T09:07:50.839Z,9.711779
2023-05-10T09:08:50.832Z,9.711814
2023-05-10T09:09:50.850Z,9.711698
2023-05-10T09:10:50.815Z,9.711890
2023-05-10T09:11:50.841Z,9.711847
2023-05-10T09:12:50.798Z,9.711843
2023-05-10T09:13:50.796Z,9.711874
2023-05-10T09:14:50.782Z,9.711638
2023-05-10T09:15:50.802Z,9.711736
2023-05-10T09:16:50.800Z,9.711640
2023-05-10T09:17:50.815Z,9.711658
2023-05-10T09:18:50.906Z,9.711644
2023-05-10T09:19:50.826Z,9.711639
2023-05-10T09:20:50.742Z,9.711687
2023-05-10T09:21:50.730Z,9.711692
2023-05-10T09:22:50.746Z,9.711606
2023-05-10T09:23:50.704Z,9.711566
2023-05-10T09:24:50.705Z,9.711443
2023-05-10T09:25:50.715Z,9.711483
2023-05-10T09:26:50.684Z,9.711586
2023-05-10T09:27:50.673Z,9.711653
2023-05-10T09:28:50.661Z,9.711744
2023-05-10T09:29:50.665Z,9.711656
2023-05-10T09:30:50.677Z,9.711603
2023-05-10T09:31:50.649Z,9.711561
2023-05-10T09:32:50.707Z,9.711596
2023-05-10T09:33:50.630Z,9.711596
2023-05-10T09:34:50.620Z,9.711627
2023-05-10T09:35:50.621Z,9.711639
2023-05-10T09:36:50.590Z,9.711630
2023-05-10T09:37:51.622Z,9.711618
2023-05-10T09:38:50.586Z,9.711611
2023-05-10T09:39:50.599Z,9.711599
2023-05-10T09:40:50.587Z,9.711604
2023-05-10T09:41:50.566Z,9.711611
2023-05-10T09:42:50.569Z,9.711589
2023-05-10T09:43:50.565Z,9.711605
2023-05-10T09:44:50.546Z,9.711657
2023-05-10T09:45:50.545Z,9.711632
2023-05-10T09:46:50.523Z,9.711624
2023-05-10T09:47:50.578Z,9.711637
2023-05-10T09:48:50.542Z,9.711612
2023-05-10T09:49:50.521Z,9.711586
2023-05-10T09:50:50.499Z,9.711637
2023-05-10T09:51:50.491Z,9.711623
2023-05-10T09:52:50.487Z,9.711650
2023-05-10T09:53:50.538Z,9.711630
2023-05-10T09:54:50.467Z,9.711577
2023-05-10T09:55:50.478Z,9.711607
2023-05-10T09:56:50.519Z,9.711577
2023-05-10T09:57:50.464Z,9.711619
2023-05-10T09:58:50.430Z,9.711691
2023-05-10T09:59:50.436Z,9.711569
2023-05-10T10:00:50.432Z,9.711653
2023-05-10T10:01:50.547Z,9.711649
2023-05-10T10:02:50.586Z,9.711686
2023-05-10T10:03:51.444Z,9.711675
2023-05-10T10:04:50.585Z,9.711596
2023-05-10T10:05:50.410Z,9.711680
2023-05-10T10:06:50.441Z,9.711669
2023-05-10T10:07:50.372Z,9.711746
2023-05-10T10:08:50.361Z,9.711725
2023-05-10T10:09:50.424Z,9.711715
2023-05-10T10:10:53.167Z,9.711617
2023-05-10T10:11:50.338Z,9.711608
2023-05-10T10:12:50.326Z,9.711681
2023-05-10T10:13:50.328Z,9.711658
2023-05-10T10:14:50.334Z,9.711923
2023-05-10T10:15:50.373Z,9.711848
2023-05-10T10:17:05.732Z,9.711845
2023-05-10T10:17:52.322Z,9.711883
2023-05-10T10:18:50.324Z,9.711708
2023-05-10T10:19:50.271Z,9.711747
2023-05-10T10:20:50.653Z,9.711884
2023-05-10T10:21:52.104Z,9.711877
2023-05-10T10:22:50.246Z,9.711659
2023-05-10T10:23:50.243Z,9.711645
2023-05-10T10:24:50.238Z,9.711766
2023-05-10T10:25:50.232Z,9.711844
2023-05-10T10:26:50.257Z,9.711945
2023-05-10T10:27:50.264Z,9.711749
2023-05-10T10:28:50.289Z,9.711788
2023-05-10T10:29:50.217Z,9.711740
2023-05-10T10:30:50.211Z,9.711857
2023-05-10T10:31:50.242Z,9.711982
2023-05-10T10:32:50.250Z,9.712038
2023-05-10T10:33:50.164Z,9.711897
2023-05-10T10:34:51.051Z,9.711611
2023-05-10T10:35:50.154Z,9.711721
2023-05-10T10:36:50.151Z,9.711702
2023-05-10T10:37:50.130Z,9.711617
2023-05-10T10:38:50.144Z,9.711879
2023-05-10T10:39:50.117Z,9.711992
2023-05-10T10:40:50.112Z,9.711940
2023-05-10T10:41:50.103Z,9.712070
2023-05-10T10:42:50.102Z,9.711918
2023-05-10T10:43:50.087Z,9.712036
2023-05-10T10:44:50.082Z,9.712032
2023-05-10T10:45:50.071Z,9.711680
2023-05-10T10:46:50.091Z,9.711612
2023-05-10T10:47:50.132Z,9.712348
2023-05-10T10:48:50.049Z,9.712040
2023-05-10T10:49:50.035Z,9.712196
2023-05-10T10:50:50.074Z,9.712333
2023-05-10T10:51:50.036Z,9.711818
2023-05-10T10:52:50.046Z,9.710917
2023-05-10T10:53:50.018Z,9.710781
2023-05-10T10:54:50.003Z,9.711102
2023-05-10T10:55:50.086Z,9.711179
2023-05-10T10:56:49.991Z,9.711253
2023-05-10T10:57:49.990Z,9.711572
2023-05-10T10:58:49.986Z,9.711249
2023-05-10T10:59:49.991Z,9.711558
2023-05-10T11:00:50.016Z,9.712349
2023-05-10T11:01:50.509Z,9.712214
2023-05-10T11:02:50.055Z,9.711854
2023-05-10T11:03:49.970Z,9.711451
2023-05-10T11:04:50.261Z,9.711444
2023-05-10T11:05:49.946Z,9.712225
2023-05-10T11:06:49.960Z,9.712214
2023-05-10T11:07:49.901Z,9.711778
2023-05-10T11:08:50.899Z,9.711552
2023-05-10T11:09:49.897Z,9.711575
2023-05-10T11:10:49.900Z,9.711537
2023-05-10T11:11:49.886Z,9.711523
2023-05-10T11:12:49.876Z,9.711535
2023-05-10T11:13:51.406Z,9.711519
2023-05-10T11:14:51.547Z,9.711614
2023-05-10T11:15:49.862Z,9.711532
2023-05-10T11:16:49.926Z,9.711441
2023-05-10T11:17:50.570Z,9.711597
2023-05-10T11:18:50.334Z,9.711693
2023-05-10T11:19:50.810Z,9.711395
2023-05-10T11:20:49.787Z,9.711481
2023-05-10T11:21:50.837Z,9.711529
2023-05-10T11:22:49.783Z,9.711444
2023-05-10T11:23:49.796Z,9.711865
2023-05-10T11:24:50.206Z,9.711863
2023-05-10T11:25:50.783Z,9.711872
2023-05-10T11:26:49.763Z,9.711555
2023-05-10T11:27:50.761Z,9.711565
2023-05-10T11:28:50.562Z,9.711641
2023-05-10T11:29:49.754Z,9.711635
2023-05-10T11:30:49.772Z,9.711714
2023-05-10T11:31:49.724Z,9.711654
2023-05-10T11:32:49.739Z,9.711393
2023-05-10T11:33:49.719Z,9.711624
2023-05-10T11:34:49.699Z,9.711679
2023-05-10T11:35:49.689Z,9.711621
2023-05-10T11:36:49.692Z,9.711755
2023-05-10T11:37:49.708Z,9.711628
2023-05-10T11:38:50.670Z,9.711481
2023-05-10T11:39:49.673Z,9.711481
2023-05-10T11:40:49.657Z,9.711438
2023-05-10T11:41:49.664Z,9.711543
2023-05-10T11:42:49.668Z,9.711569
2023-05-10T11:43:49.651Z,9.711607
2023-05-10T11:44:49.630Z,9.711530
2023-05-10T11:45:49.650Z,9.711495
2023-05-10T11:46:49.696Z,9.711464
2023-05-10T11:47:49.696Z,9.711489
2023-05-10T11:48:49.613Z,9.711526
2023-05-10T11:49:49.582Z,9.711611
2023-05-10T11:50:49.578Z,9.711568
2023-05-10T11:51:49.587Z,9.711540
2023-05-10T11:52:49.578Z,9.711575
2023-05-10T11:53:49.571Z,9.711564
2023-05-10T11:54:49.555Z,9.711496